createdAt,value
2018-05-17T00:00:28.331Z,96525.76
2018-05-17T00:02:59.731Z,96527.09
2018-05-17T00:05:29.907Z,96529.33
2018-05-17T00:08:01.308Z,96526.17
2018-05-17T00:10:31.906Z,96523.61
2018-05-17T00:13:02.536Z,96522.18
2018-05-17T00:15:32.922Z,96519.63
2018-05-17T00:18:03.381Z,96522.35
2018-05-17T00:20:34.758Z,96521.84
2018-05-17T00:23:05.934Z,96520.10
2018-05-17T00:25:36.543Z,96533.39
2018-05-17T00:28:07.166Z,96520.10
2018-05-17T00:30:37.776Z,96520.52
2018-05-17T00:33:09.184Z,96515.20
2018-05-17T00:35:39.819Z,96517.14
2018-05-17T00:38:10.647Z,96513.05
2018-05-17T00:40:41.042Z,96516.12
2018-05-17T00:43:11.682Z,96521.43
2018-05-17T00:45:42.297Z,96510.80
2018-05-17T00:48:13.694Z,96515.40
2018-05-17T00:50:44.302Z,96511.72
2018-05-17T00:53:32.212Z,96507.73
2018-05-17T00:56:03.595Z,96497.21
2018-05-17T00:58:34.230Z,96496.80
2018-05-17T01:01:04.841Z,96499.05
2018-05-17T01:03:36.234Z,96492.00
2018-05-17T01:06:06.847Z,96485.35
2018-05-17T01:08:37.481Z,96487.19
2018-05-17T01:11:08.101Z,96492.00
2018-05-17T01:13:38.731Z,96487.60
2018-05-17T01:16:10.105Z,96487.60
2018-05-17T01:18:40.728Z,96489.84
2018-05-17T01:21:11.346Z,96487.60
2018-05-17T01:23:42.755Z,96486.27
2018-05-17T01:26:13.371Z,96491.69
2018-05-17T01:28:43.998Z,96483.30
2018-05-17T01:31:14.619Z,96484.53
2018-05-17T01:33:45.248Z,96482.90
2018-05-17T01:36:15.862Z,96485.14
2018-05-17T01:38:46.498Z,96485.63
2018-05-17T01:41:17.110Z,96481.64
2018-05-17T01:43:48.273Z,96485.14
2018-05-17T01:46:19.650Z,96482.90
2018-05-17T01:48:50.289Z,96481.56
2018-05-17T01:51:20.903Z,96478.98
2018-05-17T01:53:51.543Z,96473.26
2018-05-17T01:56:22.148Z,96474.08
2018-05-17T01:58:53.554Z,96473.66
2018-05-17T02:01:24.172Z,96478.57
2018-05-17T02:03:54.807Z,96479.48
2018-05-17T02:06:25.420Z,96483.88
2018-05-17T02:08:56.050Z,96487.80
2018-05-17T02:11:26.655Z,96488.69
2018-05-17T02:13:58.059Z,96491.34
2018-05-17T02:16:28.658Z,96488.79
2018-05-17T02:18:59.300Z,96483.98
2018-05-17T02:21:29.914Z,96479.59
2018-05-17T02:24:01.320Z,96475.61
2018-05-17T02:26:31.926Z,96483.88
2018-05-17T02:29:02.572Z,96482.66
2018-05-17T02:31:33.375Z,96487.05
2018-05-17T02:34:04.766Z,96489.30
2018-05-17T02:36:35.382Z,96488.37
2018-05-17T02:39:05.283Z,96489.30
2018-05-17T02:41:36.654Z,96495.42
2018-05-17T02:44:07.292Z,96493.69
2018-05-17T02:46:37.899Z,96499.00
2018-05-17T02:49:08.575Z,96499.92
2018-05-17T02:51:39.349Z,96500.84
2018-05-17T02:54:09.985Z,96500.84
2018-05-17T02:56:40.601Z,96503.50
2018-05-17T02:59:11.239Z,96507.08
2018-05-17T03:01:41.867Z,96507.48
2018-05-17T03:04:12.709Z,96507.58
2018-05-17T03:06:43.328Z,96512.39
2018-05-17T03:09:13.973Z,96521.28
2018-05-17T03:11:44.583Z,96520.87
2018-05-17T03:14:15.207Z,96524.34
2018-05-17T03:16:45.830Z,96520.36
2018-05-17T03:19:16.463Z,96523.02
2018-05-17T03:21:47.082Z,96519.03
2018-05-17T03:24:17.541Z,96520.36
2018-05-17T03:26:48.147Z,96524.44
2018-05-17T03:29:18.782Z,96526.79
2018-05-17T03:31:49.400Z,96531.09
2018-05-17T03:34:20.794Z,96532.41
2018-05-17T03:36:51.407Z,96526.18
2018-05-17T03:39:22.042Z,96525.87
2018-05-17T03:41:52.862Z,96535.07
2018-05-17T03:44:23.495Z,96533.33
2018-05-17T03:46:54.867Z,96538.64
2018-05-17T03:49:25.509Z,96530.78
2018-05-17T03:51:56.122Z,96535.17
2018-05-17T03:54:26.755Z,96534.76
2018-05-17T03:56:57.366Z,96538.74
2018-05-17T03:59:28.759Z,96542.32
2018-05-17T04:02:16.283Z,96542.32
2018-05-17T04:05:04.184Z,96539.73
2018-05-17T04:07:34.987Z,96537.08
2018-05-17T04:10:05.628Z,96543.20
2018-05-17T04:12:36.229Z,96544.12
2018-05-17T04:15:06.667Z,96540.23
2018-05-17T04:17:37.281Z,96539.83
2018-05-17T04:20:07.920Z,96544.23
2018-05-17T04:22:38.535Z,96542.39
2018-05-17T04:25:09.168Z,96542.80
2018-05-17T04:27:39.774Z,96544.53
2018-05-17T04:30:10.989Z,96546.72
2018-05-17T04:32:41.606Z,96545.80
2018-05-17T04:35:12.242Z,96550.09
2018-05-17T04:37:42.663Z,96555.51
2018-05-17T04:40:13.294Z,96546.62
2018-05-17T04:42:43.907Z,96551.83
2018-05-17T04:45:15.416Z,96553.16
2018-05-17T04:47:46.026Z,96550.91
2018-05-17T04:50:16.654Z,96553.98
2018-05-17T04:52:47.266Z,96560.52
2018-05-17T04:55:17.905Z,96561.95
2018-05-17T04:57:48.526Z,96568.08
2018-05-17T05:00:19.159Z,96562.45
2018-05-17T05:02:49.777Z,96571.25
2018-05-17T05:05:20.398Z,96569.00
2018-05-17T05:07:51.699Z,96566.13
2018-05-17T05:10:22.315Z,96566.13
2018-05-17T05:12:52.930Z,96572.53
2018-05-17T05:15:24.331Z,96571.11
2018-05-17T05:17:54.947Z,96570.38
2018-05-17T05:20:25.385Z,96573.14
2018-05-17T05:22:56.065Z,96579.78
2018-05-17T05:25:26.683Z,96578.66
2018-05-17T05:27:57.867Z,96579.92
2018-05-17T05:30:29.011Z,96586.56
2018-05-17T05:32:59.087Z,96583.56
2018-05-17T05:35:29.513Z,96596.78
2018-05-17T05:37:59.582Z,96599.44
2018-05-17T05:40:30.978Z,96599.84
2018-05-17T05:43:01.056Z,96598.52
2018-05-17T05:45:31.678Z,96602.98
2018-05-17T05:48:01.952Z,96598.11
2018-05-17T05:50:32.381Z,96593.27
2018-05-17T05:53:02.450Z,96591.95
2018-05-17T05:55:32.902Z,96591.95
2018-05-17T05:58:03.734Z,96588.88
2018-05-17T06:00:34.910Z,96592.45
2018-05-17T06:03:04.974Z,96584.22
2018-05-17T06:05:36.179Z,96588.11
2018-05-17T06:08:06.251Z,96584.84
2018-05-17T06:10:36.951Z,96587.44
2018-05-17T06:13:07.021Z,96589.70
2018-05-17T06:15:37.655Z,96590.71
2018-05-17T06:18:07.711Z,96592.55
2018-05-17T06:20:38.439Z,96594.97
2018-05-17T06:23:08.504Z,96595.41
2018-05-17T06:25:39.198Z,96603.85
2018-05-17T06:28:09.273Z,96595.20
2018-05-17T06:30:40.462Z,96588.88
2018-05-17T06:33:10.533Z,96593.58
2018-05-17T06:35:41.258Z,96602.57
2018-05-17T06:38:11.320Z,96607.98
2018-05-17T06:40:41.738Z,96604.91
2018-05-17T06:43:11.807Z,96618.80
2018-05-17T06:45:41.887Z,96608.59
2018-05-17T06:48:12.724Z,96612.23
2018-05-17T06:50:43.137Z,96610.02
2018-05-17T06:53:13.215Z,96615.80
2018-05-17T06:55:43.939Z,96611.51
2018-05-17T06:58:14.002Z,96619.07
2018-05-17T07:00:45.198Z,96615.50
2018-05-17T07:03:15.266Z,96629.59
2018-05-17T07:05:45.951Z,96625.66
2018-05-17T07:08:17.386Z,96629.38
2018-05-17T07:10:48.038Z,96626.53
2018-05-17T07:13:18.475Z,96630.76
2018-05-17T07:15:49.190Z,96645.69
2018-05-17T07:18:20.002Z,96649.27
2018-05-17T07:20:51.503Z,96647.42
2018-05-17T07:23:22.151Z,96638.63
2018-05-17T07:25:52.863Z,96641.41
2018-05-17T07:28:23.523Z,96649.31
2018-05-17T07:30:54.251Z,96653.30
2018-05-17T07:33:24.939Z,96653.88
2018-05-17T07:35:55.658Z,96654.37
2018-05-17T07:38:26.346Z,96660.20
2018-05-17T07:40:57.067Z,96657.64
2018-05-17T07:43:27.766Z,96652.43
2018-05-17T07:45:58.448Z,96658.66
2018-05-17T07:48:29.139Z,96660.47
2018-05-17T07:50:59.848Z,96664.97
2018-05-17T07:53:30.535Z,96671.20
2018-05-17T07:56:01.263Z,96664.23
2018-05-17T07:58:32.738Z,96675.38
2018-05-17T08:01:03.490Z,96681.52
2018-05-17T08:03:34.162Z,96685.19
2018-05-17T08:06:04.880Z,96686.11
2018-05-17T08:08:35.339Z,96685.70
2018-05-17T08:11:06.895Z,96694.14
2018-05-17T08:13:37.580Z,96701.20
2018-05-17T08:16:08.295Z,96698.64
2018-05-17T08:18:38.982Z,96693.01
2018-05-17T08:21:09.681Z,96689.75
2018-05-17T08:23:40.363Z,96689.43
2018-05-17T08:26:11.850Z,96688.52
2018-05-17T08:28:42.538Z,96692.50
2018-05-17T08:31:13.248Z,96695.25
2018-05-17T08:33:43.915Z,96700.06
2018-05-17T08:36:14.698Z,96706.08
2018-05-17T08:38:45.527Z,96704.14
2018-05-17T08:41:16.255Z,96709.36
2018-05-17T08:43:47.698Z,96711.92
2018-05-17T08:46:19.184Z,96714.98
2018-05-17T08:48:49.866Z,96726.03
2018-05-17T08:51:20.584Z,96722.45
2018-05-17T08:53:51.280Z,96728.20
2018-05-17T08:56:22.766Z,96729.95
2018-05-17T08:58:53.470Z,96730.86
2018-05-17T09:01:24.178Z,96737.82
2018-05-17T09:03:54.875Z,96731.69
2018-05-17T09:06:25.606Z,96737.92
2018-05-17T09:08:56.036Z,96731.69
2018-05-17T09:11:26.746Z,96741.97
2018-05-17T09:13:57.443Z,96749.78
2018-05-17T09:16:28.945Z,96749.27
2018-05-17T09:18:59.647Z,96744.05
2018-05-17T09:21:31.121Z,96755.60
2018-05-17T09:24:01.845Z,96764.49
2018-05-17T09:26:32.580Z,96764.14
2018-05-17T09:29:03.271Z,96754.84
2018-05-17T09:31:33.988Z,96760.16
2018-05-17T09:34:04.674Z,96758.83
2018-05-17T09:36:35.414Z,96751.47
2018-05-17T09:39:06.137Z,96739.41
2018-05-17T09:41:37.615Z,96737.98
2018-05-17T09:44:08.323Z,96737.92
2018-05-17T09:46:39.812Z,96732.51
2018-05-17T09:49:10.510Z,96737.22
2018-05-17T09:51:41.223Z,96738.38
2018-05-17T09:54:11.906Z,96733.79
2018-05-17T09:56:42.630Z,96740.80
2018-05-17T09:59:13.326Z,96753.99
2018-05-17T10:01:44.039Z,96760.44
2018-05-17T10:04:14.708Z,96757.30
2018-05-17T10:06:45.403Z,96761.20
2018-05-17T10:09:16.107Z,96763.25
2018-05-17T10:11:47.579Z,96769.08
2018-05-17T10:14:18.259Z,96767.46
2018-05-17T10:16:48.944Z,96766.98
2018-05-17T10:19:19.635Z,96769.45
2018-05-17T10:21:50.430Z,96772.78
2018-05-17T10:24:21.252Z,96769.55
2018-05-17T10:26:52.026Z,96777.19
2018-05-17T10:29:22.740Z,96770.42
2018-05-17T10:31:54.399Z,96776.56
2018-05-17T10:34:25.085Z,96769.91
2018-05-17T10:36:55.790Z,96765.63
2018-05-17T10:39:26.470Z,96766.65
2018-05-17T10:41:57.950Z,96768.68
2018-05-17T10:44:28.634Z,96767.10
2018-05-17T10:46:59.322Z,96769.77
2018-05-17T10:49:29.986Z,96768.84
2018-05-17T10:52:00.678Z,96771.70
2018-05-17T10:54:31.394Z,96781.16
2018-05-17T10:57:02.288Z,96772.71
2018-05-17T10:59:32.969Z,96776.70
2018-05-17T11:02:04.438Z,96773.19
2018-05-17T11:04:35.870Z,96779.02
2018-05-17T11:07:06.595Z,96781.16
2018-05-17T11:09:38.054Z,96784.74
2018-05-17T11:12:08.803Z,96778.44
2018-05-17T11:14:39.671Z,96782.02
2018-05-17T11:17:10.383Z,96787.91
2018-05-17T11:19:41.831Z,96786.16
2018-05-17T11:22:12.507Z,96787.91
2018-05-17T11:24:43.199Z,96785.03
2018-05-17T11:27:14.670Z,96789.94
2018-05-17T11:29:45.368Z,96785.95
2018-05-17T11:32:16.080Z,96790.34
2018-05-17T11:34:46.806Z,96786.27
2018-05-17T11:37:17.513Z,96780.75
2018-05-17T11:39:48.163Z,96782.33
2018-05-17T11:42:18.878Z,96779.67
2018-05-17T11:44:50.302Z,96787.14
2018-05-17T11:47:20.968Z,96782.33
2018-05-17T11:49:51.603Z,96781.09
2018-05-17T11:52:23.086Z,96786.48
2018-05-17T11:54:53.746Z,96782.08
2018-05-17T11:57:24.202Z,96780.28
2018-05-17T11:59:55.667Z,96776.77
2018-05-17T12:02:27.118Z,96777.62
2018-05-17T12:04:57.811Z,96786.98
2018-05-17T12:07:28.508Z,96784.33
2018-05-17T12:10:00.126Z,96781.00
2018-05-17T12:12:31.606Z,96785.81
2018-05-17T12:15:03.031Z,96778.25
2018-05-17T12:17:33.726Z,96781.22
2018-05-17T12:20:04.395Z,96783.87
2018-05-17T12:22:35.076Z,96774.92
2018-05-17T12:25:06.467Z,96777.89
2018-05-17T12:27:37.146Z,96779.31
2018-05-17T12:30:08.599Z,96783.30
2018-05-17T12:32:39.260Z,96786.38
2018-05-17T12:35:09.702Z,96783.37
2018-05-17T12:37:40.165Z,96788.52
2018-05-17T12:40:11.590Z,96787.31
2018-05-17T12:42:42.240Z,96786.73
2018-05-17T12:45:12.895Z,96781.77
2018-05-17T12:47:44.361Z,96785.66
2018-05-17T12:50:15.003Z,96775.84
2018-05-17T12:52:45.706Z,96780.80
2018-05-17T12:55:16.324Z,96783.92
2018-05-17T12:57:47.012Z,96778.09
2018-05-17T13:00:17.626Z,96783.61
2018-05-17T13:02:49.102Z,96778.86
2018-05-17T13:05:25.402Z,96780.80
2018-05-17T13:07:56.078Z,96781.52
2018-05-17T13:10:26.511Z,96783.51
2018-05-17T13:12:58.008Z,96777.48
2018-05-17T13:15:29.936Z,96778.75
2018-05-17T13:18:00.621Z,96783.22
2018-05-17T13:20:31.253Z,96783.66
2018-05-17T13:23:01.699Z,96778.23
2018-05-17T13:25:32.114Z,96787.14
2018-05-17T13:28:03.007Z,96777.63
2018-05-17T13:30:34.410Z,96779.78
2018-05-17T13:33:04.871Z,96774.37
2018-05-17T13:35:35.290Z,96781.11
2018-05-17T13:38:05.706Z,96779.27
2018-05-17T13:40:36.343Z,96778.77
2018-05-17T13:43:06.788Z,96784.94
2018-05-17T13:45:37.418Z,96782.18
2018-05-17T13:48:08.071Z,96777.37
2018-05-17T13:50:40.003Z,96776.86
2018-05-17T13:53:10.671Z,96783.52
2018-05-17T13:55:41.294Z,96785.77
2018-05-17T13:58:11.941Z,96786.33
2018-05-17T14:00:42.579Z,96784.94
2018-05-17T14:03:14.019Z,96785.35
2018-05-17T14:05:44.639Z,96788.58
2018-05-17T14:08:15.291Z,96791.34
2018-05-17T14:10:45.921Z,96788.58
2018-05-17T14:13:16.047Z,96792.67
2018-05-17T14:15:46.459Z,96794.92
2018-05-17T14:18:16.566Z,96794.09
2018-05-17T14:20:46.658Z,96794.09
2018-05-17T14:23:17.315Z,96794.20
2018-05-17T14:25:47.740Z,96793.78
2018-05-17T14:28:17.849Z,96795.94
2018-05-17T14:30:48.264Z,96797.36
2018-05-17T14:33:19.160Z,96788.53
2018-05-17T14:35:49.556Z,96801.11
2018-05-17T14:38:20.215Z,96800.28
2018-05-17T14:40:50.847Z,96803.04
2018-05-17T14:43:21.261Z,96804.47
2018-05-17T14:45:51.363Z,96799.36
2018-05-17T14:48:21.824Z,96800.59
2018-05-17T14:50:52.250Z,96800.94
2018-05-17T14:53:22.692Z,96799.42
2018-05-17T14:55:53.184Z,96806.48
2018-05-17T14:58:23.767Z,96808.72
2018-05-17T15:00:53.852Z,96817.11
2018-05-17T15:03:25.319Z,96810.15
2018-05-17T15:05:55.391Z,96806.48
2018-05-17T15:08:26.147Z,96809.13
2018-05-17T15:10:56.683Z,96807.80
2018-05-17T15:13:27.539Z,96804.73
2018-05-17T15:15:57.635Z,96801.25
2018-05-17T15:18:28.087Z,96806.26
2018-05-17T15:20:58.554Z,96799.17
2018-05-17T15:23:28.639Z,96800.09
2018-05-17T15:25:59.350Z,96800.19
2018-05-17T15:28:29.471Z,96800.70
2018-05-17T15:31:00.312Z,96800.80
2018-05-17T15:33:30.391Z,96808.45
2018-05-17T15:36:01.782Z,96792.41
2018-05-17T15:38:32.664Z,96800.80
2018-05-17T15:41:03.280Z,96796.70
2018-05-17T15:43:33.387Z,96802.94
2018-05-17T15:46:03.806Z,96804.37
2018-05-17T15:48:34.669Z,96809.08
2018-05-17T15:51:05.084Z,96804.37
2018-05-17T15:53:36.024Z,96799.05
2018-05-17T15:56:06.538Z,96799.97
2018-05-17T15:58:36.662Z,96802.13
2018-05-17T16:01:06.489Z,96797.22
2018-05-17T16:03:36.933Z,96795.47
2018-05-17T16:06:07.007Z,96795.06
2018-05-17T16:08:38.036Z,96792.91
2018-05-17T16:11:08.268Z,96792.41
2018-05-17T16:13:39.663Z,96794.66
2018-05-17T16:16:09.735Z,96798.64
2018-05-17T16:18:40.936Z,96796.91
2018-05-17T16:21:11.011Z,96800.37
2018-05-17T16:23:42.219Z,96804.06
2018-05-17T16:26:12.296Z,96807.53
2018-05-17T16:28:42.734Z,96814.59
2018-05-17T16:31:13.560Z,96821.14
2018-05-17T16:33:45.067Z,96819.72
2018-05-17T16:36:15.136Z,96815.13
2018-05-17T16:38:45.560Z,96813.89
2018-05-17T16:41:16.387Z,96817.47
2018-05-17T16:43:47.100Z,96811.64
2018-05-17T16:46:17.170Z,96819.11
2018-05-17T16:48:47.598Z,96821.36
2018-05-17T16:51:18.452Z,96817.38
2018-05-17T16:53:48.879Z,96818.39
2018-05-17T16:56:18.950Z,96819.81
2018-05-17T16:58:49.445Z,96832.29
2018-05-17T17:01:19.643Z,96822.26
2018-05-17T17:03:50.129Z,96835.96
2018-05-17T17:06:20.287Z,96837.05
2018-05-17T17:08:50.724Z,96839.80
2018-05-17T17:11:21.619Z,96832.91
2018-05-17T17:13:52.040Z,96832.18
2018-05-17T17:16:22.107Z,96835.86
2018-05-17T17:18:52.535Z,96833.36
2018-05-17T17:21:23.371Z,96838.33
2018-05-17T17:23:53.813Z,96845.17
2018-05-17T17:26:24.834Z,96838.37
2018-05-17T17:28:55.263Z,96848.09
2018-05-17T17:31:25.332Z,96842.45
2018-05-17T17:33:55.772Z,96840.81
2018-05-17T17:36:25.861Z,96845.31
2018-05-17T17:38:56.469Z,96839.23
2018-05-17T17:41:27.302Z,96842.91
2018-05-17T17:43:57.758Z,96842.59
2018-05-17T17:46:27.830Z,96843.67
2018-05-17T17:48:58.246Z,96847.19
2018-05-17T17:51:28.306Z,96844.28
2018-05-17T17:53:58.396Z,96846.52
2018-05-17T17:56:29.098Z,96848.77
2018-05-17T17:58:59.198Z,96854.91
2018-05-17T18:01:29.811Z,96848.55
2018-05-17T18:03:59.895Z,96849.88
2018-05-17T18:06:29.986Z,96845.14
2018-05-17T18:09:00.698Z,96846.97
2018-05-17T18:11:31.521Z,96841.34
2018-05-17T18:14:01.955Z,96848.91
2018-05-17T18:16:32.028Z,96850.33
2018-05-17T18:19:02.456Z,96847.26
2018-05-17T18:21:32.526Z,96846.91
2018-05-17T18:24:02.969Z,96850.48
2018-05-17T18:26:33.223Z,96848.34
2018-05-17T18:29:04.676Z,96849.20
2018-05-17T18:31:36.102Z,96847.75
2018-05-17T18:34:06.790Z,96846.48
2018-05-17T18:36:38.183Z,96845.09
2018-05-17T18:39:08.859Z,96846.07
2018-05-17T18:41:39.287Z,96850.66
2018-05-17T18:44:09.959Z,96851.58
2018-05-17T18:46:40.636Z,96852.50
2018-05-17T18:49:11.301Z,96851.67
2018-05-17T18:51:42.708Z,96850.85
2018-05-17T18:54:13.403Z,96851.33
2018-05-17T18:56:44.030Z,96855.00
2018-05-17T18:59:14.686Z,96855.50
2018-05-17T19:01:45.397Z,96855.19
2018-05-17T19:04:16.211Z,96865.41
2018-05-17T19:06:46.881Z,96864.17
2018-05-17T19:09:17.583Z,96866.33
2018-05-17T19:11:48.795Z,96873.06
2018-05-17T19:14:19.242Z,96880.59
2018-05-17T19:16:49.879Z,96878.44
2018-05-17T19:19:20.595Z,96875.78
2018-05-17T19:21:52.028Z,96877.62
2018-05-17T19:24:22.698Z,96880.78
2018-05-17T19:26:54.122Z,96878.53
2018-05-17T19:29:24.576Z,96879.96
2018-05-17T19:31:56.003Z,96884.04
2018-05-17T19:34:26.687Z,96890.59
2018-05-17T19:36:58.393Z,96890.27
2018-05-17T19:39:29.192Z,96899.57
2018-05-17T19:41:59.873Z,96896.56
2018-05-17T19:44:31.372Z,96900.99
2018-05-17T19:47:02.778Z,96905.86
2018-05-17T19:49:33.478Z,96907.80
2018-05-17T19:52:04.179Z,96912.59
2018-05-17T19:54:34.900Z,96907.80
2018-05-17T19:57:05.546Z,96912.70
2018-05-17T19:59:37.032Z,96915.86
2018-05-17T20:02:08.647Z,96912.28
2018-05-17T20:04:39.090Z,96918.92
2018-05-17T20:07:09.770Z,96922.50
2018-05-17T20:09:40.494Z,96920.34
2018-05-17T20:12:11.188Z,96921.67
2018-05-17T20:14:41.920Z,96925.16
2018-05-17T20:17:13.366Z,96929.23
2018-05-17T20:19:44.075Z,96924.49
2018-05-17T20:22:14.732Z,96925.76
2018-05-17T20:24:46.203Z,96922.28
2018-05-17T20:27:16.896Z,96919.18
2018-05-17T20:29:47.583Z,96923.16
2018-05-17T20:32:18.259Z,96921.36
2018-05-17T20:34:48.966Z,96924.94
2018-05-17T20:37:19.614Z,96923.67
2018-05-17T20:39:50.323Z,96922.84
2018-05-17T20:42:21.075Z,96926.01
2018-05-17T20:44:52.692Z,96929.17
2018-05-17T20:47:23.374Z,96930.00
2018-05-17T20:49:54.090Z,96931.00
2018-05-17T20:52:24.762Z,96937.23
2018-05-17T20:54:55.467Z,96933.25
2018-05-17T20:57:26.162Z,96932.75
2018-05-17T20:59:56.878Z,96933.66
2018-05-17T21:02:28.335Z,96932.02
2018-05-17T21:04:59.827Z,96939.55
2018-05-17T21:07:30.513Z,96931.26
2018-05-17T21:10:01.215Z,96931.16
2018-05-17T21:12:32.100Z,96930.34
2018-05-17T21:15:02.989Z,96929.92
2018-05-17T21:17:33.645Z,96926.36
2018-05-17T21:20:04.360Z,96935.23
2018-05-17T21:22:35.054Z,96928.60
2018-05-17T21:25:06.275Z,96930.75
2018-05-17T21:27:36.964Z,96924.71
2018-05-17T21:30:07.717Z,96918.16
2018-05-17T21:32:38.373Z,96927.05
2018-05-17T21:35:09.076Z,96923.48
2018-05-17T21:37:39.753Z,96924.80
2018-05-17T21:40:11.235Z,96923.98
2018-05-17T21:42:42.664Z,96929.70
2018-05-17T21:45:14.142Z,96931.44
2018-05-17T21:47:44.831Z,96928.47
2018-05-17T21:50:15.542Z,96930.20
2018-05-17T21:52:46.222Z,96932.87
2018-05-17T21:55:17.712Z,96932.45
2018-05-17T21:57:49.139Z,96932.52
2018-05-17T22:00:19.855Z,96932.52
2018-05-17T22:02:50.310Z,96939.09
2018-05-17T22:05:21.775Z,96936.91
2018-05-17T22:07:52.471Z,96939.66
2018-05-17T22:10:23.179Z,96938.75
2018-05-17T22:12:53.855Z,96933.02
2018-05-17T22:15:25.336Z,96932.61
2018-05-17T22:17:55.785Z,96929.13
2018-05-17T22:20:26.574Z,96927.90
2018-05-17T22:22:58.083Z,96925.97
2018-05-17T22:25:30.448Z,96933.21
2018-05-17T22:28:01.115Z,96935.87
2018-05-17T22:30:31.815Z,96933.30
2018-05-17T22:33:02.507Z,96939.44
2018-05-17T22:35:33.201Z,96935.87
2018-05-17T22:38:03.870Z,96932.89
2018-05-17T22:40:34.556Z,96934.63
2018-05-17T22:43:05.234Z,96925.91
2018-05-17T22:45:35.943Z,96927.58
2018-05-17T22:48:06.373Z,96921.45
2018-05-17T22:50:37.063Z,96916.95
2018-05-17T22:53:08.498Z,96917.02
2018-05-17T22:55:39.181Z,96917.46
2018-05-17T22:58:28.434Z,96916.13
2018-05-17T23:00:59.099Z,96914.30
2018-05-17T23:03:29.783Z,96913.89
2018-05-17T23:06:00.491Z,96913.95
2018-05-17T23:08:31.112Z,96913.54
2018-05-17T23:11:01.756Z,96920.18
2018-05-17T23:13:32.407Z,96919.77
2018-05-17T23:16:03.886Z,96919.77
2018-05-17T23:18:34.587Z,96918.44
2018-05-17T23:21:05.281Z,96920.69
2018-05-17T23:23:35.958Z,96921.19
2018-05-17T23:26:07.447Z,96921.60
2018-05-17T23:28:38.882Z,96920.78
2018-05-17T23:31:09.595Z,96911.98
2018-05-17T23:33:40.232Z,96917.20
2018-05-17T23:36:10.887Z,96917.20
2018-05-17T23:38:41.518Z,96911.89
2018-05-17T23:41:30.106Z,96912.91
2018-05-17T23:44:01.507Z,96910.34
2018-05-17T23:46:32.182Z,96903.70
2018-05-17T23:49:03.601Z,96905.34
2018-05-17T23:51:35.062Z,96907.69
2018-05-17T23:54:06.511Z,96906.36
2018-05-17T23:56:37.984Z,96915.56
2018-05-17T23:59:08.607Z,96918.62
